Aviation Digital Data Service (ADDS)

Output produced by METARs form (1604 UTC 20 May 2018)
found at http://aviationweather.gov/adds/metars/
 
KSAV 201553Z 20004KT 10SM FEW028 BKN048 BKN110 OVC200 26/21 A3018 RMK AO2 RAB01E49 SLP220 P0000 T02610206
KSVN 201556Z AUTO 17004KT 10SM FEW160 26/21 A3016 RMK AO2 RAB11E23 SLP216 P0000 T02630206 $
KLHW 201556Z AUTO 17003KT 10SM -RA FEW080 SCT100 SCT140 SCT190 BKN210 26/20 A3017 RMK AO2 DZE09DZB16E19RAB19E40DZB40E52RAB52 SLP219 P0000 T02550201 $
KTBR 201555Z AUTO 23003KT 10SM BKN075 27/20 A3018 RMK AO2 T02670195
KVDI 201555Z AUTO 19007KT 10SM CLR 27/19 A3017 RMK AO2
KJYL 201555Z AUTO 27003KT 10SM SCT021 27/22 A3019 RMK AO2 T02700216
KDBN 201555Z AUTO 00000KT 10SM BKN021 BKN026 BKN047 26/21 A3017 RMK AO2
KJES 201540Z AUTO 00000KT 10SM -RA BKN015 BKN022 OVC060 25/21 A3019 RMK AO2
KSSI 201553Z AUTO 13006KT 10SM FEW090 BKN110 25/21 A3018 RMK AO2 SLP220 T02500206
KBQK 201555Z AUTO 13004KT 10SM 25/20 A3019 RMK AO2
KAYS 201555Z AUTO 00000KT 7SM RA BKN070 OVC080 23/22 A3018 RMK AO2 T02320216
KNBC 201556Z AUTO 18004KT 10SM SCT026 BKN080 BKN120 28/22 A3018 RMK AO2 SLP220 T02780217
KHXD 201550Z 18005KT 10SM SCT013 SCT020 25/22 A3020